sensor_id;sensor_type;location;lat;lon;timestamp;P1;durP1;ratioP1;P2;durP2;ratioP2
70780;SDS011;59514;48.810;2.134;2023-05-20T00:01:35;9.68;;;6.15;;
70780;SDS011;59514;48.810;2.134;2023-05-20T00:04:00;10.32;;;6.40;;
70780;SDS011;59514;48.810;2.134;2023-05-20T00:06:25;11.55;;;7.35;;
70780;SDS011;59514;48.810;2.134;2023-05-20T00:08:51;9.02;;;6.35;;
70780;SDS011;59514;48.810;2.134;2023-05-20T00:11:16;10.02;;;6.57;;
70780;SDS011;59514;48.810;2.134;2023-05-20T00:13:41;8.38;;;6.65;;
70780;SDS011;59514;48.810;2.134;2023-05-20T00:16:07;9.80;;;6.53;;
70780;SDS011;59514;48.810;2.134;2023-05-20T00:18:32;9.68;;;6.72;;
70780;SDS011;59514;48.810;2.134;2023-05-20T00:20:57;11.57;;;7.00;;
70780;SDS011;59514;48.810;2.134;2023-05-20T00:23:23;8.90;;;6.25;;
70780;SDS011;59514;48.810;2.134;2023-05-20T00:25:48;7.72;;;6.35;;
70780;SDS011;59514;48.810;2.134;2023-05-20T00:28:14;7.43;;;6.00;;
70780;SDS011;59514;48.810;2.134;2023-05-20T00:30:39;7.95;;;6.07;;
70780;SDS011;59514;48.810;2.134;2023-05-20T00:33:05;9.20;;;6.20;;
70780;SDS011;59514;48.810;2.134;2023-05-20T00:35:31;8.18;;;6.32;;
70780;SDS011;59514;48.810;2.134;2023-05-20T00:37:56;10.60;;;6.25;;
70780;SDS011;59514;48.810;2.134;2023-05-20T00:40:21;11.30;;;6.45;;
70780;SDS011;59514;48.810;2.134;2023-05-20T00:42:48;10.70;;;6.78;;
70780;SDS011;59514;48.810;2.134;2023-05-20T00:45:14;6.55;;;5.85;;
70780;SDS011;59514;48.810;2.134;2023-05-20T00:47:39;12.90;;;6.53;;
70780;SDS011;59514;48.810;2.134;2023-05-20T00:50:05;8.90;;;6.63;;
70780;SDS011;59514;48.810;2.134;2023-05-20T00:52:31;11.35;;;6.03;;
70780;SDS011;59514;48.810;2.134;2023-05-20T00:54:57;9.05;;;5.95;;
70780;SDS011;59514;48.810;2.134;2023-05-20T00:57:23;7.97;;;5.50;;
70780;SDS011;59514;48.810;2.134;2023-05-20T00:59:49;9.75;;;6.47;;
70780;SDS011;59514;48.810;2.134;2023-05-20T01:02:15;8.40;;;6.03;;
70780;SDS011;59514;48.810;2.134;2023-05-20T01:04:40;9.65;;;6.25;;
70780;SDS011;59514;48.810;2.134;2023-05-20T01:07:10;8.68;;;5.80;;
70780;SDS011;59514;48.810;2.134;2023-05-20T01:09:36;8.75;;;6.18;;
70780;SDS011;59514;48.810;2.134;2023-05-20T01:12:07;9.85;;;6.43;;
70780;SDS011;59514;48.810;2.134;2023-05-20T01:14:39;13.55;;;6.63;;
70780;SDS011;59514;48.810;2.134;2023-05-20T01:17:11;6.85;;;5.60;;
70780;SDS011;59514;48.810;2.134;2023-05-20T01:19:42;8.82;;;6.28;;
70780;SDS011;59514;48.810;2.134;2023-05-20T01:22:09;10.40;;;5.30;;
70780;SDS011;59514;48.810;2.134;2023-05-20T01:24:45;6.30;;;5.63;;
70780;SDS011;59514;48.810;2.134;2023-05-20T01:27:13;8.95;;;5.90;;
70780;SDS011;59514;48.810;2.134;2023-05-20T01:29:39;11.15;;;5.75;;
70780;SDS011;59514;48.810;2.134;2023-05-20T01:32:14;9.93;;;5.93;;
70780;SDS011;59514;48.810;2.134;2023-05-20T01:34:55;6.45;;;5.07;;
70780;SDS011;59514;48.810;2.134;2023-05-20T01:37:22;7.35;;;5.60;;
70780;SDS011;59514;48.810;2.134;2023-05-20T01:39:49;8.00;;;6.35;;
70780;SDS011;59514;48.810;2.134;2023-05-20T01:42:15;7.07;;;5.30;;
70780;SDS011;59514;48.810;2.134;2023-05-20T01:44:41;8.25;;;5.85;;
70780;SDS011;59514;48.810;2.134;2023-05-20T01:47:07;8.48;;;5.75;;
70780;SDS011;59514;48.810;2.134;2023-05-20T01:49:32;11.40;;;7.15;;
70780;SDS011;59514;48.810;2.134;2023-05-20T01:51:58;8.30;;;5.90;;
70780;SDS011;59514;48.810;2.134;2023-05-20T01:54:23;10.63;;;6.13;;
70780;SDS011;59514;48.810;2.134;2023-05-20T01:56:49;9.80;;;5.85;;
70780;SDS011;59514;48.810;2.134;2023-05-20T01:59:14;9.80;;;5.68;;
70780;SDS011;59514;48.810;2.134;2023-05-20T02:01:40;8.90;;;5.60;;
70780;SDS011;59514;48.810;2.134;2023-05-20T02:04:05;9.63;;;5.75;;
70780;SDS011;59514;48.810;2.134;2023-05-20T02:06:30;8.73;;;5.55;;
70780;SDS011;59514;48.810;2.134;2023-05-20T02:08:56;8.98;;;5.85;;
70780;SDS011;59514;48.810;2.134;2023-05-20T02:11:21;8.48;;;6.25;;
70780;SDS011;59514;48.810;2.134;2023-05-20T02:13:46;10.10;;;5.80;;
70780;SDS011;59514;48.810;2.134;2023-05-20T02:16:13;11.60;;;6.10;;
70780;SDS011;59514;48.810;2.134;2023-05-20T02:18:38;9.27;;;6.10;;
70780;SDS011;59514;48.810;2.134;2023-05-20T02:21:04;8.73;;;5.90;;
70780;SDS011;59514;48.810;2.134;2023-05-20T02:23:30;7.70;;;5.72;;
70780;SDS011;59514;48.810;2.134;2023-05-20T02:25:55;9.18;;;5.97;;
70780;SDS011;59514;48.810;2.134;2023-05-20T02:28:21;9.23;;;5.47;;
70780;SDS011;59514;48.810;2.134;2023-05-20T02:30:46;12.75;;;6.45;;
70780;SDS011;59514;48.810;2.134;2023-05-20T02:33:11;10.32;;;6.00;;
70780;SDS011;59514;48.810;2.134;2023-05-20T02:35:37;8.80;;;6.68;;
70780;SDS011;59514;48.810;2.134;2023-05-20T02:38:03;7.75;;;6.57;;
70780;SDS011;59514;48.810;2.134;2023-05-20T02:40:29;9.63;;;6.45;;
70780;SDS011;59514;48.810;2.134;2023-05-20T02:42:55;12.25;;;6.93;;
70780;SDS011;59514;48.810;2.134;2023-05-20T02:45:20;9.50;;;6.28;;
70780;SDS011;59514;48.810;2.134;2023-05-20T02:47:45;11.43;;;6.22;;
70780;SDS011;59514;48.810;2.134;2023-05-20T02:50:10;12.23;;;6.85;;
70780;SDS011;59514;48.810;2.134;2023-05-20T02:52:36;14.48;;;6.78;;
70780;SDS011;59514;48.810;2.134;2023-05-20T02:55:01;10.20;;;7.10;;
70780;SDS011;59514;48.810;2.134;2023-05-20T02:57:27;10.30;;;6.43;;
70780;SDS011;59514;48.810;2.134;2023-05-20T02:59:52;10.55;;;6.40;;
70780;SDS011;59514;48.810;2.134;2023-05-20T03:02:18;8.32;;;6.28;;
70780;SDS011;59514;48.810;2.134;2023-05-20T03:04:44;8.85;;;6.57;;
70780;SDS011;59514;48.810;2.134;2023-05-20T03:07:10;9.25;;;6.15;;
70780;SDS011;59514;48.810;2.134;2023-05-20T03:09:36;9.73;;;6.47;;
70780;SDS011;59514;48.810;2.134;2023-05-20T03:12:01;10.77;;;6.95;;
70780;SDS011;59514;48.810;2.134;2023-05-20T03:14:27;10.18;;;6.60;;
70780;SDS011;59514;48.810;2.134;2023-05-20T03:16:52;10.52;;;6.47;;
70780;SDS011;59514;48.810;2.134;2023-05-20T03:19:19;10.70;;;6.32;;
70780;SDS011;59514;48.810;2.134;2023-05-20T03:21:45;10.27;;;6.53;;
70780;SDS011;59514;48.810;2.134;2023-05-20T03:24:10;9.40;;;6.40;;
70780;SDS011;59514;48.810;2.134;2023-05-20T03:26:36;7.65;;;5.90;;
70780;SDS011;59514;48.810;2.134;2023-05-20T03:29:06;9.93;;;7.00;;
70780;SDS011;59514;48.810;2.134;2023-05-20T03:31:32;9.55;;;6.55;;
70780;SDS011;59514;48.810;2.134;2023-05-20T03:33:58;10.00;;;6.45;;
70780;SDS011;59514;48.810;2.134;2023-05-20T03:36:23;9.57;;;7.03;;
70780;SDS011;59514;48.810;2.134;2023-05-20T03:38:49;10.48;;;7.53;;
70780;SDS011;59514;48.810;2.134;2023-05-20T03:41:14;9.90;;;6.97;;
70780;SDS011;59514;48.810;2.134;2023-05-20T03:43:39;9.10;;;6.63;;
70780;SDS011;59514;48.810;2.134;2023-05-20T03:46:04;11.27;;;7.25;;
70780;SDS011;59514;48.810;2.134;2023-05-20T03:48:30;13.07;;;7.97;;
70780;SDS011;59514;48.810;2.134;2023-05-20T03:50:55;10.30;;;7.25;;
70780;SDS011;59514;48.810;2.134;2023-05-20T03:53:21;9.50;;;7.40;;
70780;SDS011;59514;48.810;2.134;2023-05-20T03:55:46;9.80;;;6.88;;
70780;SDS011;59514;48.810;2.134;2023-05-20T03:58:12;9.95;;;7.20;;
70780;SDS011;59514;48.810;2.134;2023-05-20T04:00:39;12.13;;;8.32;;
70780;SDS011;59514;48.810;2.134;2023-05-20T04:03:04;13.52;;;10.00;;
70780;SDS011;59514;48.810;2.134;2023-05-20T04:05:30;9.07;;;7.20;;
70780;SDS011;59514;48.810;2.134;2023-05-20T04:07:56;8.77;;;6.82;;
70780;SDS011;59514;48.810;2.134;2023-05-20T04:10:21;11.57;;;7.25;;
70780;SDS011;59514;48.810;2.134;2023-05-20T04:12:47;8.30;;;6.38;;
70780;SDS011;59514;48.810;2.134;2023-05-20T04:15:12;10.02;;;7.43;;
70780;SDS011;59514;48.810;2.134;2023-05-20T04:17:38;10.63;;;7.18;;
70780;SDS011;59514;48.810;2.134;2023-05-20T04:20:04;12.70;;;7.70;;
70780;SDS011;59514;48.810;2.134;2023-05-20T04:22:31;11.73;;;8.32;;
70780;SDS011;59514;48.810;2.134;2023-05-20T04:24:57;11.63;;;8.02;;
70780;SDS011;59514;48.810;2.134;2023-05-20T04:27:23;11.95;;;8.52;;
70780;SDS011;59514;48.810;2.134;2023-05-20T04:29:49;12.80;;;7.97;;
70780;SDS011;59514;48.810;2.134;2023-05-20T04:32:17;12.13;;;7.85;;
70780;SDS011;59514;48.810;2.134;2023-05-20T04:34:44;8.35;;;7.28;;
70780;SDS011;59514;48.810;2.134;2023-05-20T04:37:12;13.15;;;8.38;;
70780;SDS011;59514;48.810;2.134;2023-05-20T04:39:38;11.25;;;7.55;;
70780;SDS011;59514;48.810;2.134;2023-05-20T04:42:04;12.23;;;8.02;;
70780;SDS011;59514;48.810;2.134;2023-05-20T04:44:29;9.38;;;6.90;;
70780;SDS011;59514;48.810;2.134;2023-05-20T04:46:55;13.57;;;8.13;;
70780;SDS011;59514;48.810;2.134;2023-05-20T04:49:23;10.13;;;8.07;;
70780;SDS011;59514;48.810;2.134;2023-05-20T04:51:50;10.85;;;8.95;;
70780;SDS011;59514;48.810;2.134;2023-05-20T04:54:16;11.77;;;7.70;;
70780;SDS011;59514;48.810;2.134;2023-05-20T04:56:42;15.82;;;7.88;;
70780;SDS011;59514;48.810;2.134;2023-05-20T04:59:10;11.93;;;7.97;;
70780;SDS011;59514;48.810;2.134;2023-05-20T05:01:36;9.95;;;7.68;;
70780;SDS011;59514;48.810;2.134;2023-05-20T05:04:02;13.18;;;7.97;;
70780;SDS011;59514;48.810;2.134;2023-05-20T05:06:27;10.02;;;7.30;;
70780;SDS011;59514;48.810;2.134;2023-05-20T05:08:53;8.13;;;6.50;;
70780;SDS011;59514;48.810;2.134;2023-05-20T05:11:18;8.63;;;7.13;;
70780;SDS011;59514;48.810;2.134;2023-05-20T05:13:43;7.85;;;7.10;;
70780;SDS011;59514;48.810;2.134;2023-05-20T05:16:09;9.32;;;6.50;;
70780;SDS011;59514;48.810;2.134;2023-05-20T05:18:34;11.68;;;7.95;;
70780;SDS011;59514;48.810;2.134;2023-05-20T05:21:00;13.68;;;8.55;;
70780;SDS011;59514;48.810;2.134;2023-05-20T05:23:26;10.40;;;8.05;;
70780;SDS011;59514;48.810;2.134;2023-05-20T05:25:52;11.52;;;8.02;;
70780;SDS011;59514;48.810;2.134;2023-05-20T05:28:17;11.60;;;8.45;;
70780;SDS011;59514;48.810;2.134;2023-05-20T05:30:43;11.05;;;7.60;;
70780;SDS011;59514;48.810;2.134;2023-05-20T05:33:08;12.43;;;7.82;;
70780;SDS011;59514;48.810;2.134;2023-05-20T05:35:34;13.00;;;7.85;;
70780;SDS011;59514;48.810;2.134;2023-05-20T05:37:59;12.43;;;8.32;;
70780;SDS011;59514;48.810;2.134;2023-05-20T05:40:25;10.43;;;8.13;;
70780;SDS011;59514;48.810;2.134;2023-05-20T05:42:51;10.90;;;8.05;;
70780;SDS011;59514;48.810;2.134;2023-05-20T05:45:16;10.18;;;7.65;;
70780;SDS011;59514;48.810;2.134;2023-05-20T05:47:42;11.02;;;8.57;;
70780;SDS011;59514;48.810;2.134;2023-05-20T05:50:07;12.73;;;8.00;;
70780;SDS011;59514;48.810;2.134;2023-05-20T05:52:34;11.88;;;8.30;;
70780;SDS011;59514;48.810;2.134;2023-05-20T05:54:59;15.48;;;9.38;;
70780;SDS011;59514;48.810;2.134;2023-05-20T05:57:25;15.63;;;9.38;;
70780;SDS011;59514;48.810;2.134;2023-05-20T05:59:50;9.68;;;8.38;;
70780;SDS011;59514;48.810;2.134;2023-05-20T06:02:15;17.65;;;8.60;;
70780;SDS011;59514;48.810;2.134;2023-05-20T06:04:41;10.85;;;7.93;;
70780;SDS011;59514;48.810;2.134;2023-05-20T06:07:06;12.25;;;8.30;;
70780;SDS011;59514;48.810;2.134;2023-05-20T06:09:32;9.45;;;8.45;;
70780;SDS011;59514;48.810;2.134;2023-05-20T06:11:57;11.82;;;8.60;;
70780;SDS011;59514;48.810;2.134;2023-05-20T06:14:22;11.75;;;8.98;;
70780;SDS011;59514;48.810;2.134;2023-05-20T06:16:48;13.23;;;9.25;;
70780;SDS011;59514;48.810;2.134;2023-05-20T06:19:13;11.50;;;8.35;;
70780;SDS011;59514;48.810;2.134;2023-05-20T06:21:38;12.88;;;9.00;;
70780;SDS011;59514;48.810;2.134;2023-05-20T06:24:04;10.07;;;8.73;;
70780;SDS011;59514;48.810;2.134;2023-05-20T06:26:29;10.65;;;8.10;;
70780;SDS011;59514;48.810;2.134;2023-05-20T06:28:55;9.52;;;8.13;;
70780;SDS011;59514;48.810;2.134;2023-05-20T06:31:20;10.73;;;8.50;;
70780;SDS011;59514;48.810;2.134;2023-05-20T06:33:45;12.25;;;8.50;;
70780;SDS011;59514;48.810;2.134;2023-05-20T06:36:11;11.70;;;8.85;;
70780;SDS011;59514;48.810;2.134;2023-05-20T06:38:36;10.32;;;8.10;;
70780;SDS011;59514;48.810;2.134;2023-05-20T06:41:02;10.38;;;8.52;;
70780;SDS011;59514;48.810;2.134;2023-05-20T06:43:27;14.07;;;8.80;;
70780;SDS011;59514;48.810;2.134;2023-05-20T06:45:53;11.20;;;8.65;;
70780;SDS011;59514;48.810;2.134;2023-05-20T06:48:18;11.10;;;9.10;;
70780;SDS011;59514;48.810;2.134;2023-05-20T06:50:43;11.18;;;8.52;;
70780;SDS011;59514;48.810;2.134;2023-05-20T06:53:09;13.43;;;8.35;;
70780;SDS011;59514;48.810;2.134;2023-05-20T06:55:35;12.10;;;9.20;;
70780;SDS011;59514;48.810;2.134;2023-05-20T06:58:01;11.80;;;8.68;;
70780;SDS011;59514;48.810;2.134;2023-05-20T07:00:27;11.52;;;9.13;;
70780;SDS011;59514;48.810;2.134;2023-05-20T07:02:52;10.70;;;9.32;;
70780;SDS011;59514;48.810;2.134;2023-05-20T07:05:18;13.18;;;9.50;;
70780;SDS011;59514;48.810;2.134;2023-05-20T07:07:43;10.52;;;8.88;;
70780;SDS011;59514;48.810;2.134;2023-05-20T07:10:08;11.50;;;8.50;;
70780;SDS011;59514;48.810;2.134;2023-05-20T07:12:34;11.75;;;9.32;;
70780;SDS011;59514;48.810;2.134;2023-05-20T07:14:59;9.98;;;8.07;;
70780;SDS011;59514;48.810;2.134;2023-05-20T07:17:25;12.57;;;8.40;;
70780;SDS011;59514;48.810;2.134;2023-05-20T07:19:51;10.45;;;7.97;;
70780;SDS011;59514;48.810;2.134;2023-05-20T07:22:17;9.98;;;7.93;;
70780;SDS011;59514;48.810;2.134;2023-05-20T07:24:42;10.02;;;7.68;;
70780;SDS011;59514;48.810;2.134;2023-05-20T07:27:08;13.88;;;9.30;;
70780;SDS011;59514;48.810;2.134;2023-05-20T07:29:36;11.90;;;8.98;;
70780;SDS011;59514;48.810;2.134;2023-05-20T07:32:02;11.32;;;8.38;;
70780;SDS011;59514;48.810;2.134;2023-05-20T07:34:29;10.77;;;8.25;;
70780;SDS011;59514;48.810;2.134;2023-05-20T07:36:54;8.60;;;7.57;;
70780;SDS011;59514;48.810;2.134;2023-05-20T07:39:21;10.73;;;8.23;;
70780;SDS011;59514;48.810;2.134;2023-05-20T07:41:46;11.27;;;7.30;;
70780;SDS011;59514;48.810;2.134;2023-05-20T07:44:11;12.23;;;8.55;;
70780;SDS011;59514;48.810;2.134;2023-05-20T07:46:37;10.00;;;7.82;;
70780;SDS011;59514;48.810;2.134;2023-05-20T07:49:03;11.35;;;7.43;;
70780;SDS011;59514;48.810;2.134;2023-05-20T07:51:29;8.50;;;7.47;;
70780;SDS011;59514;48.810;2.134;2023-05-20T07:53:55;10.18;;;8.23;;
70780;SDS011;59514;48.810;2.134;2023-05-20T07:56:21;12.88;;;8.32;;
70780;SDS011;59514;48.810;2.134;2023-05-20T07:58:57;10.13;;;7.70;;
70780;SDS011;59514;48.810;2.134;2023-05-20T08:01:24;11.50;;;8.27;;
70780;SDS011;59514;48.810;2.134;2023-05-20T08:03:50;10.05;;;7.65;;
70780;SDS011;59514;48.810;2.134;2023-05-20T08:06:16;9.07;;;7.07;;
70780;SDS011;59514;48.810;2.134;2023-05-20T08:08:41;7.72;;;6.93;;
70780;SDS011;59514;48.810;2.134;2023-05-20T08:11:07;11.05;;;6.43;;
70780;SDS011;59514;48.810;2.134;2023-05-20T08:13:33;8.50;;;6.32;;
70780;SDS011;59514;48.810;2.134;2023-05-20T08:15:58;8.98;;;6.65;;
70780;SDS011;59514;48.810;2.134;2023-05-20T08:18:24;8.05;;;6.30;;
70780;SDS011;59514;48.810;2.134;2023-05-20T08:20:51;6.78;;;5.93;;
70780;SDS011;59514;48.810;2.134;2023-05-20T08:23:16;9.75;;;6.60;;
70780;SDS011;59514;48.810;2.134;2023-05-20T08:25:42;9.20;;;7.43;;
70780;SDS011;59514;48.810;2.134;2023-05-20T08:28:07;7.93;;;7.13;;
70780;SDS011;59514;48.810;2.134;2023-05-20T08:30:33;7.38;;;6.38;;
70780;SDS011;59514;48.810;2.134;2023-05-20T08:32:58;7.80;;;5.80;;
70780;SDS011;59514;48.810;2.134;2023-05-20T08:35:24;7.43;;;6.60;;
70780;SDS011;59514;48.810;2.134;2023-05-20T08:37:50;6.72;;;5.97;;
70780;SDS011;59514;48.810;2.134;2023-05-20T08:40:18;8.88;;;6.88;;
70780;SDS011;59514;48.810;2.134;2023-05-20T08:42:44;8.68;;;6.68;;
70780;SDS011;59514;48.810;2.134;2023-05-20T08:45:14;8.25;;;6.25;;
70780;SDS011;59514;48.810;2.134;2023-05-20T08:47:43;8.02;;;6.07;;
70780;SDS011;59514;48.810;2.134;2023-05-20T08:50:10;8.30;;;6.10;;
70780;SDS011;59514;48.810;2.134;2023-05-20T08:52:37;9.65;;;6.80;;
70780;SDS011;59514;48.810;2.134;2023-05-20T08:55:13;7.00;;;5.72;;
70780;SDS011;59514;48.810;2.134;2023-05-20T08:57:40;6.53;;;5.30;;
70780;SDS011;59514;48.810;2.134;2023-05-20T09:00:09;7.65;;;5.78;;
70780;SDS011;59514;48.810;2.134;2023-05-20T09:02:38;7.97;;;5.72;;
70780;SDS011;59514;48.810;2.134;2023-05-20T09:05:03;8.10;;;5.57;;
70780;SDS011;59514;48.810;2.134;2023-05-20T09:07:29;8.48;;;5.80;;
70780;SDS011;59514;48.810;2.134;2023-05-20T09:09:55;7.35;;;5.80;;
70780;SDS011;59514;48.810;2.134;2023-05-20T09:12:21;7.90;;;6.00;;
70780;SDS011;59514;48.810;2.134;2023-05-20T09:14:47;6.53;;;5.53;;
70780;SDS011;59514;48.810;2.134;2023-05-20T09:17:12;7.85;;;5.47;;
70780;SDS011;59514;48.810;2.134;2023-05-20T09:19:37;6.68;;;4.95;;
70780;SDS011;59514;48.810;2.134;2023-05-20T09:22:03;5.20;;;4.22;;
70780;SDS011;59514;48.810;2.134;2023-05-20T09:24:29;5.00;;;4.47;;
70780;SDS011;59514;48.810;2.134;2023-05-20T09:26:55;6.50;;;4.28;;
70780;SDS011;59514;48.810;2.134;2023-05-20T09:29:21;6.28;;;4.10;;
70780;SDS011;59514;48.810;2.134;2023-05-20T09:31:48;6.65;;;4.47;;
70780;SDS011;59514;48.810;2.134;2023-05-20T09:34:14;6.15;;;4.47;;
70780;SDS011;59514;48.810;2.134;2023-05-20T09:36:41;4.85;;;4.20;;
70780;SDS011;59514;48.810;2.134;2023-05-20T09:39:10;5.60;;;4.28;;
70780;SDS011;59514;48.810;2.134;2023-05-20T09:41:40;4.65;;;3.78;;
70780;SDS011;59514;48.810;2.134;2023-05-20T09:44:13;6.43;;;4.35;;
70780;SDS011;59514;48.810;2.134;2023-05-20T09:46:40;5.93;;;3.67;;
70780;SDS011;59514;48.810;2.134;2023-05-20T09:49:08;4.97;;;3.85;;
70780;SDS011;59514;48.810;2.134;2023-05-20T09:51:35;4.60;;;3.15;;
70780;SDS011;59514;48.810;2.134;2023-05-20T09:54:01;4.53;;;3.40;;
70780;SDS011;59514;48.810;2.134;2023-05-20T09:56:27;4.13;;;2.90;;
70780;SDS011;59514;48.810;2.134;2023-05-20T09:58:53;3.28;;;2.70;;
70780;SDS011;59514;48.810;2.134;2023-05-20T10:01:22;2.78;;;2.35;;
70780;SDS011;59514;48.810;2.134;2023-05-20T10:03:49;6.55;;;2.65;;
70780;SDS011;59514;48.810;2.134;2023-05-20T10:06:20;3.13;;;2.50;;
70780;SDS011;59514;48.810;2.134;2023-05-20T10:09:13;2.92;;;2.22;;
70780;SDS011;59514;48.810;2.134;2023-05-20T10:14:33;3.53;;;2.45;;
70780;SDS011;59514;48.810;2.134;2023-05-20T10:17:16;3.47;;;2.10;;
70780;SDS011;59514;48.810;2.134;2023-05-20T10:19:57;4.23;;;2.50;;
70780;SDS011;59514;48.810;2.134;2023-05-20T10:24:59;2.22;;;1.92;;
70780;SDS011;59514;48.810;2.134;2023-05-20T10:27:40;2.58;;;2.35;;
70780;SDS011;59514;48.810;2.134;2023-05-20T10:30:19;2.38;;;1.95;;
70780;SDS011;59514;48.810;2.134;2023-05-20T10:32:50;2.83;;;2.40;;
70780;SDS011;59514;48.810;2.134;2023-05-20T10:35:20;4.25;;;1.98;;
70780;SDS011;59514;48.810;2.134;2023-05-20T10:37:53;2.60;;;1.88;;
70780;SDS011;59514;48.810;2.134;2023-05-20T10:40:30;2.97;;;2.00;;
70780;SDS011;59514;48.810;2.134;2023-05-20T10:42:55;2.60;;;2.03;;
70780;SDS011;59514;48.810;2.134;2023-05-20T10:45:28;2.58;;;2.35;;
70780;SDS011;59514;48.810;2.134;2023-05-20T10:47:54;3.58;;;2.10;;
70780;SDS011;59514;48.810;2.134;2023-05-20T10:50:33;3.45;;;2.20;;
70780;SDS011;59514;48.810;2.134;2023-05-20T10:53:06;2.00;;;1.83;;
70780;SDS011;59514;48.810;2.134;2023-05-20T10:55:37;2.80;;;2.00;;
70780;SDS011;59514;48.810;2.134;2023-05-20T10:58:04;2.80;;;1.77;;
70780;SDS011;59514;48.810;2.134;2023-05-20T11:00:30;2.47;;;1.80;;
70780;SDS011;59514;48.810;2.134;2023-05-20T11:02:56;2.25;;;1.45;;
70780;SDS011;59514;48.810;2.134;2023-05-20T11:05:21;2.22;;;1.80;;
70780;SDS011;59514;48.810;2.134;2023-05-20T11:07:47;2.08;;;1.90;;
70780;SDS011;59514;48.810;2.134;2023-05-20T11:10:13;3.30;;;1.87;;
70780;SDS011;59514;48.810;2.134;2023-05-20T11:12:38;3.90;;;1.70;;
70780;SDS011;59514;48.810;2.134;2023-05-20T11:15:04;3.67;;;2.00;;
70780;SDS011;59514;48.810;2.134;2023-05-20T11:17:29;2.50;;;1.67;;
70780;SDS011;59514;48.810;2.134;2023-05-20T11:19:55;2.97;;;2.13;;
70780;SDS011;59514;48.810;2.134;2023-05-20T11:22:20;2.47;;;1.67;;
70780;SDS011;59514;48.810;2.134;2023-05-20T11:24:46;2.83;;;1.80;;
70780;SDS011;59514;48.810;2.134;2023-05-20T11:27:12;1.90;;;1.60;;
70780;SDS011;59514;48.810;2.134;2023-05-20T11:29:37;1.60;;;1.50;;
70780;SDS011;59514;48.810;2.134;2023-05-20T11:32:04;2.05;;;1.60;;
70780;SDS011;59514;48.810;2.134;2023-05-20T11:34:35;2.15;;;1.95;;
70780;SDS011;59514;48.810;2.134;2023-05-20T11:37:01;2.95;;;1.75;;
70780;SDS011;59514;48.810;2.134;2023-05-20T11:39:31;2.25;;;1.70;;
70780;SDS011;59514;48.810;2.134;2023-05-20T11:41:57;2.30;;;1.65;;
70780;SDS011;59514;48.810;2.134;2023-05-20T11:44:23;2.28;;;1.67;;
70780;SDS011;59514;48.810;2.134;2023-05-20T11:46:48;2.00;;;1.50;;
70780;SDS011;59514;48.810;2.134;2023-05-20T11:49:14;3.07;;;1.60;;
70780;SDS011;59514;48.810;2.134;2023-05-20T11:51:40;2.50;;;1.70;;
70780;SDS011;59514;48.810;2.134;2023-05-20T11:54:05;2.53;;;1.60;;
70780;SDS011;59514;48.810;2.134;2023-05-20T11:56:32;2.78;;;1.63;;
70780;SDS011;59514;48.810;2.134;2023-05-20T11:58:59;2.47;;;1.65;;
70780;SDS011;59514;48.810;2.134;2023-05-20T12:01:25;3.05;;;1.88;;
70780;SDS011;59514;48.810;2.134;2023-05-20T12:03:54;1.70;;;1.60;;
70780;SDS011;59514;48.810;2.134;2023-05-20T12:06:19;2.20;;;1.60;;
70780;SDS011;59514;48.810;2.134;2023-05-20T12:08:45;1.88;;;1.70;;
70780;SDS011;59514;48.810;2.134;2023-05-20T12:11:11;2.45;;;1.55;;
70780;SDS011;59514;48.810;2.134;2023-05-20T12:13:37;2.85;;;1.40;;
70780;SDS011;59514;48.810;2.134;2023-05-20T12:16:03;2.65;;;1.65;;
70780;SDS011;59514;48.810;2.134;2023-05-20T12:18:30;3.38;;;1.50;;
70780;SDS011;59514;48.810;2.134;2023-05-20T12:20:56;2.60;;;1.52;;
70780;SDS011;59514;48.810;2.134;2023-05-20T12:23:22;2.03;;;1.52;;
70780;SDS011;59514;48.810;2.134;2023-05-20T12:25:47;3.50;;;1.67;;
70780;SDS011;59514;48.810;2.134;2023-05-20T12:28:13;3.83;;;1.52;;
70780;SDS011;59514;48.810;2.134;2023-05-20T12:30:40;1.83;;;1.60;;
70780;SDS011;59514;48.810;2.134;2023-05-20T12:33:05;2.03;;;1.50;;
70780;SDS011;59514;48.810;2.134;2023-05-20T12:35:38;1.95;;;1.50;;
70780;SDS011;59514;48.810;2.134;2023-05-20T12:38:05;2.40;;;1.40;;
70780;SDS011;59514;48.810;2.134;2023-05-20T12:40:31;3.22;;;1.67;;
70780;SDS011;59514;48.810;2.134;2023-05-20T12:42:57;2.03;;;1.58;;
70780;SDS011;59514;48.810;2.134;2023-05-20T12:45:23;1.40;;;1.30;;
70780;SDS011;59514;48.810;2.134;2023-05-20T12:47:48;2.97;;;1.60;;
70780;SDS011;59514;48.810;2.134;2023-05-20T12:50:15;2.75;;;1.45;;
70780;SDS011;59514;48.810;2.134;2023-05-20T12:52:40;2.15;;;1.63;;
70780;SDS011;59514;48.810;2.134;2023-05-20T12:55:06;1.65;;;1.50;;
70780;SDS011;59514;48.810;2.134;2023-05-20T12:57:37;2.78;;;1.67;;
70780;SDS011;59514;48.810;2.134;2023-05-20T13:00:04;1.77;;;1.33;;
70780;SDS011;59514;48.810;2.134;2023-05-20T13:02:30;1.50;;;1.40;;
70780;SDS011;59514;48.810;2.134;2023-05-20T13:04:55;2.00;;;1.42;;
70780;SDS011;59514;48.810;2.134;2023-05-20T13:07:21;2.88;;;1.67;;
70780;SDS011;59514;48.810;2.134;2023-05-20T13:09:46;1.97;;;1.43;;
70780;SDS011;59514;48.810;2.134;2023-05-20T13:12:11;1.65;;;1.50;;
70780;SDS011;59514;48.810;2.134;2023-05-20T13:14:37;1.73;;;1.55;;
70780;SDS011;59514;48.810;2.134;2023-05-20T13:17:02;1.37;;;1.10;;
70780;SDS011;59514;48.810;2.134;2023-05-20T13:19:27;2.17;;;1.48;;
70780;SDS011;59514;48.810;2.134;2023-05-20T13:21:53;2.13;;;1.40;;
70780;SDS011;59514;48.810;2.134;2023-05-20T13:24:18;1.20;;;1.10;;
70780;SDS011;59514;48.810;2.134;2023-05-20T13:26:44;1.58;;;1.48;;
70780;SDS011;59514;48.810;2.134;2023-05-20T13:29:10;2.60;;;1.52;;
70780;SDS011;59514;48.810;2.134;2023-05-20T13:31:36;2.08;;;1.65;;
70780;SDS011;59514;48.810;2.134;2023-05-20T13:34:02;1.80;;;1.10;;
70780;SDS011;59514;48.810;2.134;2023-05-20T13:36:27;1.65;;;1.40;;
70780;SDS011;59514;48.810;2.134;2023-05-20T13:38:53;1.77;;;1.40;;
70780;SDS011;59514;48.810;2.134;2023-05-20T13:41:18;1.88;;;1.67;;
70780;SDS011;59514;48.810;2.134;2023-05-20T13:43:44;2.60;;;1.50;;
70780;SDS011;59514;48.810;2.134;2023-05-20T13:46:09;1.90;;;1.50;;
70780;SDS011;59514;48.810;2.134;2023-05-20T13:48:35;1.65;;;1.30;;
70780;SDS011;59514;48.810;2.134;2023-05-20T13:51:00;1.83;;;1.40;;
70780;SDS011;59514;48.810;2.134;2023-05-20T13:53:26;3.33;;;1.40;;
70780;SDS011;59514;48.810;2.134;2023-05-20T13:55:51;2.08;;;1.30;;
70780;SDS011;59514;48.810;2.134;2023-05-20T13:58:17;1.88;;;1.40;;
70780;SDS011;59514;48.810;2.134;2023-05-20T14:00:42;2.57;;;1.83;;
70780;SDS011;59514;48.810;2.134;2023-05-20T14:03:08;1.95;;;1.20;;
70780;SDS011;59514;48.810;2.134;2023-05-20T14:05:34;2.70;;;1.60;;
70780;SDS011;59514;48.810;2.134;2023-05-20T14:07:59;1.63;;;1.20;;
70780;SDS011;59514;48.810;2.134;2023-05-20T14:10:25;2.08;;;1.50;;
70780;SDS011;59514;48.810;2.134;2023-05-20T14:12:53;2.17;;;1.58;;
70780;SDS011;59514;48.810;2.134;2023-05-20T14:15:21;1.77;;;1.67;;
70780;SDS011;59514;48.810;2.134;2023-05-20T14:17:46;1.60;;;1.42;;
70780;SDS011;59514;48.810;2.134;2023-05-20T14:20:12;1.52;;;1.40;;
70780;SDS011;59514;48.810;2.134;2023-05-20T14:22:37;1.92;;;1.35;;
70780;SDS011;59514;48.810;2.134;2023-05-20T14:25:03;5.28;;;2.15;;
70780;SDS011;59514;48.810;2.134;2023-05-20T14:27:28;3.05;;;1.45;;
70780;SDS011;59514;48.810;2.134;2023-05-20T14:29:54;1.60;;;1.50;;
70780;SDS011;59514;48.810;2.134;2023-05-20T14:32:19;2.15;;;1.60;;
70780;SDS011;59514;48.810;2.134;2023-05-20T14:34:45;2.30;;;1.70;;
70780;SDS011;59514;48.810;2.134;2023-05-20T14:37:10;1.40;;;1.30;;
70780;SDS011;59514;48.810;2.134;2023-05-20T14:39:36;1.58;;;1.48;;
70780;SDS011;59514;48.810;2.134;2023-05-20T14:42:01;2.13;;;1.60;;
70780;SDS011;59514;48.810;2.134;2023-05-20T14:44:27;5.38;;;1.60;;